sensor_id;sensor_type;location;lat;lon;timestamp;P1;durP1;ratioP1;P2;durP2;ratioP2
21814;SDS011;11069;48.988;8.450;2022-07-01T00:02:07;3.78;;;1.30;;
21814;SDS011;11069;48.988;8.450;2022-07-01T00:04:33;3.78;;;1.25;;
21814;SDS011;11069;48.988;8.450;2022-07-01T00:07:09;2.13;;;1.35;;
21814;SDS011;11069;48.988;8.450;2022-07-01T00:09:40;2.47;;;1.40;;
21814;SDS011;11069;48.988;8.450;2022-07-01T00:12:06;2.65;;;1.30;;
21814;SDS011;11069;48.988;8.450;2022-07-01T00:14:32;4.85;;;1.30;;
21814;SDS011;11069;48.988;8.450;2022-07-01T00:16:57;5.32;;;1.42;;
21814;SDS011;11069;48.988;8.450;2022-07-01T00:19:23;4.20;;;1.58;;
21814;SDS011;11069;48.988;8.450;2022-07-01T00:21:52;4.20;;;1.50;;
21814;SDS011;11069;48.988;8.450;2022-07-01T00:24:18;2.70;;;1.40;;
21814;SDS011;11069;48.988;8.450;2022-07-01T00:26:44;1.67;;;1.15;;
21814;SDS011;11069;48.988;8.450;2022-07-01T00:29:09;2.38;;;1.40;;
21814;SDS011;11069;48.988;8.450;2022-07-01T00:31:35;4.07;;;1.13;;
21814;SDS011;11069;48.988;8.450;2022-07-01T00:34:01;2.65;;;1.20;;
21814;SDS011;11069;48.988;8.450;2022-07-01T00:36:27;3.67;;;1.30;;
21814;SDS011;11069;48.988;8.450;2022-07-01T00:38:53;5.65;;;1.30;;
21814;SDS011;11069;48.988;8.450;2022-07-01T00:41:18;1.30;;;1.20;;
21814;SDS011;11069;48.988;8.450;2022-07-01T00:43:44;1.25;;;1.10;;
21814;SDS011;11069;48.988;8.450;2022-07-01T00:46:09;4.80;;;1.27;;
21814;SDS011;11069;48.988;8.450;2022-07-01T00:48:36;3.15;;;1.25;;
21814;SDS011;11069;48.988;8.450;2022-07-01T00:51:02;1.80;;;1.00;;
21814;SDS011;11069;48.988;8.450;2022-07-01T00:53:28;2.35;;;1.30;;
21814;SDS011;11069;48.988;8.450;2022-07-01T00:55:54;1.60;;;1.08;;
21814;SDS011;11069;48.988;8.450;2022-07-01T00:58:20;3.13;;;1.40;;
21814;SDS011;11069;48.988;8.450;2022-07-01T01:00:46;2.33;;;1.17;;
21814;SDS011;11069;48.988;8.450;2022-07-01T01:03:12;1.75;;;1.13;;
21814;SDS011;11069;48.988;8.450;2022-07-01T01:05:37;4.18;;;1.50;;
21814;SDS011;11069;48.988;8.450;2022-07-01T01:08:06;5.50;;;1.33;;
21814;SDS011;11069;48.988;8.450;2022-07-01T01:10:35;4.72;;;1.65;;
21814;SDS011;11069;48.988;8.450;2022-07-01T01:13:04;2.08;;;1.50;;
21814;SDS011;11069;48.988;8.450;2022-07-01T01:15:30;3.13;;;1.38;;
21814;SDS011;11069;48.988;8.450;2022-07-01T01:17:56;3.85;;;1.58;;
21814;SDS011;11069;48.988;8.450;2022-07-01T01:20:22;2.17;;;1.15;;
21814;SDS011;11069;48.988;8.450;2022-07-01T01:22:48;2.55;;;1.30;;
21814;SDS011;11069;48.988;8.450;2022-07-01T01:25:14;2.63;;;1.38;;
21814;SDS011;11069;48.988;8.450;2022-07-01T01:27:43;1.35;;;1.25;;
21814;SDS011;11069;48.988;8.450;2022-07-01T01:30:09;4.28;;;1.33;;
21814;SDS011;11069;48.988;8.450;2022-07-01T01:32:39;2.20;;;1.25;;
21814;SDS011;11069;48.988;8.450;2022-07-01T01:35:07;1.60;;;1.20;;
21814;SDS011;11069;48.988;8.450;2022-07-01T01:37:33;5.88;;;1.17;;
21814;SDS011;11069;48.988;8.450;2022-07-01T01:39:59;4.50;;;1.45;;
21814;SDS011;11069;48.988;8.450;2022-07-01T01:42:25;2.97;;;1.35;;
21814;SDS011;11069;48.988;8.450;2022-07-01T01:44:51;3.70;;;1.30;;
21814;SDS011;11069;48.988;8.450;2022-07-01T01:47:16;1.73;;;1.15;;
21814;SDS011;11069;48.988;8.450;2022-07-01T01:49:42;3.85;;;1.48;;
21814;SDS011;11069;48.988;8.450;2022-07-01T01:52:08;2.13;;;1.20;;
21814;SDS011;11069;48.988;8.450;2022-07-01T01:54:33;1.30;;;1.10;;
21814;SDS011;11069;48.988;8.450;2022-07-01T01:57:01;2.30;;;1.15;;
21814;SDS011;11069;48.988;8.450;2022-07-01T01:59:28;3.63;;;1.25;;
21814;SDS011;11069;48.988;8.450;2022-07-01T02:01:53;3.10;;;1.45;;
21814;SDS011;11069;48.988;8.450;2022-07-01T02:04:19;1.70;;;1.45;;
21814;SDS011;11069;48.988;8.450;2022-07-01T02:06:45;1.83;;;1.40;;
21814;SDS011;11069;48.988;8.450;2022-07-01T02:09:11;2.30;;;1.05;;
21814;SDS011;11069;48.988;8.450;2022-07-01T02:11:38;4.72;;;1.25;;
21814;SDS011;11069;48.988;8.450;2022-07-01T02:14:04;2.72;;;1.30;;
21814;SDS011;11069;48.988;8.450;2022-07-01T02:16:29;1.85;;;1.30;;
21814;SDS011;11069;48.988;8.450;2022-07-01T02:18:55;1.20;;;1.10;;
21814;SDS011;11069;48.988;8.450;2022-07-01T02:21:20;2.67;;;1.33;;
21814;SDS011;11069;48.988;8.450;2022-07-01T02:23:47;2.22;;;1.30;;
21814;SDS011;11069;48.988;8.450;2022-07-01T02:26:12;3.83;;;1.30;;
21814;SDS011;11069;48.988;8.450;2022-07-01T02:28:38;2.05;;;1.15;;
21814;SDS011;11069;48.988;8.450;2022-07-01T02:31:04;5.22;;;1.48;;
21814;SDS011;11069;48.988;8.450;2022-07-01T02:33:29;1.85;;;1.25;;
21814;SDS011;11069;48.988;8.450;2022-07-01T02:35:56;2.78;;;1.40;;
21814;SDS011;11069;48.988;8.450;2022-07-01T02:38:21;4.00;;;1.77;;
21814;SDS011;11069;48.988;8.450;2022-07-01T02:40:47;2.50;;;1.40;;
21814;SDS011;11069;48.988;8.450;2022-07-01T02:43:12;1.95;;;1.30;;
21814;SDS011;11069;48.988;8.450;2022-07-01T02:45:38;4.28;;;1.33;;
21814;SDS011;11069;48.988;8.450;2022-07-01T02:48:05;2.97;;;1.20;;
21814;SDS011;11069;48.988;8.450;2022-07-01T02:50:30;3.22;;;1.30;;
21814;SDS011;11069;48.988;8.450;2022-07-01T02:52:56;1.55;;;1.20;;
21814;SDS011;11069;48.988;8.450;2022-07-01T02:55:22;1.90;;;1.40;;
21814;SDS011;11069;48.988;8.450;2022-07-01T02:57:48;1.50;;;1.40;;
21814;SDS011;11069;48.988;8.450;2022-07-01T03:00:16;2.72;;;1.55;;
21814;SDS011;11069;48.988;8.450;2022-07-01T03:02:43;3.28;;;1.35;;
21814;SDS011;11069;48.988;8.450;2022-07-01T03:05:09;1.75;;;1.48;;
21814;SDS011;11069;48.988;8.450;2022-07-01T03:07:38;3.20;;;1.52;;
21814;SDS011;11069;48.988;8.450;2022-07-01T03:10:04;1.98;;;1.50;;
21814;SDS011;11069;48.988;8.450;2022-07-01T03:12:31;1.55;;;1.33;;
21814;SDS011;11069;48.988;8.450;2022-07-01T03:15:04;2.70;;;1.50;;
21814;SDS011;11069;48.988;8.450;2022-07-01T03:17:35;2.00;;;1.60;;
21814;SDS011;11069;48.988;8.450;2022-07-01T03:20:03;3.47;;;1.38;;
21814;SDS011;11069;48.988;8.450;2022-07-01T03:22:31;1.50;;;1.38;;
21814;SDS011;11069;48.988;8.450;2022-07-01T03:24:57;3.75;;;1.50;;
21814;SDS011;11069;48.988;8.450;2022-07-01T03:27:23;5.03;;;1.60;;
21814;SDS011;11069;48.988;8.450;2022-07-01T03:29:49;2.72;;;1.60;;
21814;SDS011;11069;48.988;8.450;2022-07-01T03:32:15;2.92;;;1.50;;
21814;SDS011;11069;48.988;8.450;2022-07-01T03:34:43;3.35;;;1.50;;
21814;SDS011;11069;48.988;8.450;2022-07-01T03:37:10;4.00;;;1.30;;
21814;SDS011;11069;48.988;8.450;2022-07-01T03:39:37;3.78;;;1.70;;
21814;SDS011;11069;48.988;8.450;2022-07-01T03:42:04;3.80;;;1.55;;
21814;SDS011;11069;48.988;8.450;2022-07-01T03:44:31;3.38;;;1.40;;
21814;SDS011;11069;48.988;8.450;2022-07-01T03:46:57;1.50;;;1.40;;
21814;SDS011;11069;48.988;8.450;2022-07-01T03:49:23;1.95;;;1.58;;
21814;SDS011;11069;48.988;8.450;2022-07-01T03:51:49;2.28;;;1.60;;
21814;SDS011;11069;48.988;8.450;2022-07-01T03:54:15;3.80;;;1.67;;
21814;SDS011;11069;48.988;8.450;2022-07-01T03:57:03;3.72;;;2.00;;
21814;SDS011;11069;48.988;8.450;2022-07-01T03:59:31;2.55;;;1.52;;
21814;SDS011;11069;48.988;8.450;2022-07-01T04:02:00;2.97;;;1.50;;
21814;SDS011;11069;48.988;8.450;2022-07-01T04:04:26;2.40;;;1.58;;
21814;SDS011;11069;48.988;8.450;2022-07-01T04:06:52;2.60;;;1.50;;
21814;SDS011;11069;48.988;8.450;2022-07-01T04:09:20;1.60;;;1.50;;
21814;SDS011;11069;48.988;8.450;2022-07-01T04:11:46;5.22;;;1.50;;
21814;SDS011;11069;48.988;8.450;2022-07-01T04:14:13;2.03;;;1.50;;
21814;SDS011;11069;48.988;8.450;2022-07-01T04:16:39;4.38;;;1.50;;
21814;SDS011;11069;48.988;8.450;2022-07-01T04:19:05;2.40;;;1.48;;
21814;SDS011;11069;48.988;8.450;2022-07-01T04:21:32;2.53;;;1.50;;
21814;SDS011;11069;48.988;8.450;2022-07-01T04:24:16;2.28;;;1.35;;
21814;SDS011;11069;48.988;8.450;2022-07-01T04:26:43;5.50;;;1.60;;
21814;SDS011;11069;48.988;8.450;2022-07-01T04:29:09;2.15;;;1.38;;
21814;SDS011;11069;48.988;8.450;2022-07-01T04:31:35;3.95;;;1.60;;
21814;SDS011;11069;48.988;8.450;2022-07-01T04:34:02;4.85;;;1.50;;
21814;SDS011;11069;48.988;8.450;2022-07-01T04:36:28;3.58;;;1.60;;
21814;SDS011;11069;48.988;8.450;2022-07-01T04:38:53;3.20;;;1.50;;
21814;SDS011;11069;48.988;8.450;2022-07-01T04:41:19;2.35;;;1.45;;
21814;SDS011;11069;48.988;8.450;2022-07-01T04:44:04;5.28;;;1.80;;
21814;SDS011;11069;48.988;8.450;2022-07-01T04:46:30;2.40;;;1.50;;
21814;SDS011;11069;48.988;8.450;2022-07-01T04:48:55;2.42;;;1.38;;
21814;SDS011;11069;48.988;8.450;2022-07-01T04:51:21;3.25;;;1.50;;
21814;SDS011;11069;48.988;8.450;2022-07-01T04:53:47;3.83;;;1.90;;
21814;SDS011;11069;48.988;8.450;2022-07-01T04:56:13;3.85;;;2.17;;
21814;SDS011;11069;48.988;8.450;2022-07-01T04:58:39;3.60;;;1.90;;
21814;SDS011;11069;48.988;8.450;2022-07-01T05:01:05;4.93;;;2.38;;
21814;SDS011;11069;48.988;8.450;2022-07-01T05:03:30;3.35;;;2.08;;
21814;SDS011;11069;48.988;8.450;2022-07-01T05:05:57;3.40;;;2.00;;
21814;SDS011;11069;48.988;8.450;2022-07-01T05:08:22;3.42;;;2.30;;
21814;SDS011;11069;48.988;8.450;2022-07-01T05:10:48;2.40;;;2.20;;
21814;SDS011;11069;48.988;8.450;2022-07-01T05:13:13;4.38;;;2.38;;
21814;SDS011;11069;48.988;8.450;2022-07-01T05:15:39;5.38;;;2.63;;
21814;SDS011;11069;48.988;8.450;2022-07-01T05:18:05;5.75;;;2.60;;
21814;SDS011;11069;48.988;8.450;2022-07-01T05:20:48;5.35;;;3.10;;
21814;SDS011;11069;48.988;8.450;2022-07-01T05:23:33;5.45;;;3.08;;
21814;SDS011;11069;48.988;8.450;2022-07-01T05:25:58;4.07;;;3.35;;
21814;SDS011;11069;48.988;8.450;2022-07-01T05:28:24;4.15;;;3.20;;
21814;SDS011;11069;48.988;8.450;2022-07-01T05:30:49;4.40;;;3.40;;
21814;SDS011;11069;48.988;8.450;2022-07-01T05:33:15;4.43;;;3.05;;
21814;SDS011;11069;48.988;8.450;2022-07-01T05:35:41;3.90;;;3.50;;
21814;SDS011;11069;48.988;8.450;2022-07-01T05:38:06;3.78;;;3.30;;
21814;SDS011;11069;48.988;8.450;2022-07-01T05:40:32;6.65;;;4.13;;
21814;SDS011;11069;48.988;8.450;2022-07-01T05:42:57;6.53;;;3.80;;
21814;SDS011;11069;48.988;8.450;2022-07-01T05:45:23;5.43;;;4.53;;
21814;SDS011;11069;48.988;8.450;2022-07-01T05:47:49;5.95;;;4.15;;
21814;SDS011;11069;48.988;8.450;2022-07-01T05:50:14;6.05;;;3.92;;
21814;SDS011;11069;48.988;8.450;2022-07-01T05:52:40;5.57;;;4.47;;
21814;SDS011;11069;48.988;8.450;2022-07-01T05:55:07;4.55;;;4.10;;
21814;SDS011;11069;48.988;8.450;2022-07-01T05:57:33;6.50;;;4.75;;
21814;SDS011;11069;48.988;8.450;2022-07-01T05:59:59;6.90;;;4.30;;
21814;SDS011;11069;48.988;8.450;2022-07-01T06:02:24;7.43;;;4.70;;
21814;SDS011;11069;48.988;8.450;2022-07-01T06:04:50;7.13;;;5.00;;
21814;SDS011;11069;48.988;8.450;2022-07-01T06:07:15;8.55;;;5.20;;
21814;SDS011;11069;48.988;8.450;2022-07-01T06:09:41;7.53;;;5.03;;
21814;SDS011;11069;48.988;8.450;2022-07-01T06:12:07;7.65;;;4.63;;
21814;SDS011;11069;48.988;8.450;2022-07-01T06:14:32;9.05;;;5.55;;
21814;SDS011;11069;48.988;8.450;2022-07-01T06:16:58;7.25;;;5.20;;
21814;SDS011;11069;48.988;8.450;2022-07-01T06:19:24;7.75;;;5.18;;
21814;SDS011;11069;48.988;8.450;2022-07-01T06:21:49;8.18;;;6.35;;
21814;SDS011;11069;48.988;8.450;2022-07-01T06:24:15;11.45;;;6.45;;
21814;SDS011;11069;48.988;8.450;2022-07-01T06:26:40;9.32;;;6.35;;
21814;SDS011;11069;48.988;8.450;2022-07-01T06:29:06;7.50;;;5.65;;
21814;SDS011;11069;48.988;8.450;2022-07-01T06:31:32;6.65;;;6.00;;
21814;SDS011;11069;48.988;8.450;2022-07-01T06:33:58;8.45;;;5.97;;
21814;SDS011;11069;48.988;8.450;2022-07-01T06:36:24;9.45;;;6.35;;
21814;SDS011;11069;48.988;8.450;2022-07-01T06:38:50;6.10;;;5.50;;
21814;SDS011;11069;48.988;8.450;2022-07-01T06:41:16;6.93;;;5.07;;
21814;SDS011;11069;48.988;8.450;2022-07-01T06:43:57;7.55;;;5.22;;
21814;SDS011;11069;48.988;8.450;2022-07-01T06:46:24;7.10;;;5.38;;
21814;SDS011;11069;48.988;8.450;2022-07-01T06:48:50;6.70;;;5.13;;
21814;SDS011;11069;48.988;8.450;2022-07-01T06:51:16;7.10;;;5.60;;
21814;SDS011;11069;48.988;8.450;2022-07-01T06:53:43;7.05;;;4.95;;
21814;SDS011;11069;48.988;8.450;2022-07-01T06:56:10;8.00;;;5.55;;
21814;SDS011;11069;48.988;8.450;2022-07-01T06:58:36;8.15;;;5.07;;
21814;SDS011;11069;48.988;8.450;2022-07-01T07:01:02;6.95;;;4.32;;
21814;SDS011;11069;48.988;8.450;2022-07-01T07:03:28;6.07;;;5.00;;
21814;SDS011;11069;48.988;8.450;2022-07-01T07:05:54;7.95;;;4.40;;
21814;SDS011;11069;48.988;8.450;2022-07-01T07:08:20;5.95;;;4.40;;
21814;SDS011;11069;48.988;8.450;2022-07-01T07:10:45;6.88;;;4.60;;
21814;SDS011;11069;48.988;8.450;2022-07-01T07:13:11;6.55;;;4.30;;
21814;SDS011;11069;48.988;8.450;2022-07-01T07:15:36;6.75;;;4.18;;
21814;SDS011;11069;48.988;8.450;2022-07-01T07:18:06;6.65;;;4.10;;
21814;SDS011;11069;48.988;8.450;2022-07-01T07:20:32;4.95;;;4.03;;
21814;SDS011;11069;48.988;8.450;2022-07-01T07:22:58;6.18;;;4.50;;
21814;SDS011;11069;48.988;8.450;2022-07-01T07:25:24;6.32;;;4.00;;
21814;SDS011;11069;48.988;8.450;2022-07-01T07:27:50;5.25;;;3.70;;
21814;SDS011;11069;48.988;8.450;2022-07-01T07:30:16;6.80;;;3.35;;
21814;SDS011;11069;48.988;8.450;2022-07-01T07:32:42;4.72;;;3.47;;
21814;SDS011;11069;48.988;8.450;2022-07-01T07:35:09;6.05;;;3.53;;
21814;SDS011;11069;48.988;8.450;2022-07-01T07:37:35;4.80;;;3.13;;
21814;SDS011;11069;48.988;8.450;2022-07-01T07:40:01;4.15;;;3.30;;
21814;SDS011;11069;48.988;8.450;2022-07-01T07:42:28;5.97;;;3.00;;
21814;SDS011;11069;48.988;8.450;2022-07-01T07:44:55;5.03;;;3.10;;
21814;SDS011;11069;48.988;8.450;2022-07-01T07:47:21;5.57;;;3.03;;
21814;SDS011;11069;48.988;8.450;2022-07-01T07:49:46;5.22;;;3.40;;
21814;SDS011;11069;48.988;8.450;2022-07-01T07:52:12;6.45;;;3.42;;
21814;SDS011;11069;48.988;8.450;2022-07-01T07:54:38;8.68;;;3.47;;
21814;SDS011;11069;48.988;8.450;2022-07-01T07:57:04;5.72;;;3.30;;
21814;SDS011;11069;48.988;8.450;2022-07-01T07:59:30;7.38;;;3.53;;
21814;SDS011;11069;48.988;8.450;2022-07-01T08:01:56;5.40;;;3.42;;
21814;SDS011;11069;48.988;8.450;2022-07-01T08:04:21;5.78;;;3.30;;
21814;SDS011;11069;48.988;8.450;2022-07-01T08:06:47;6.00;;;3.65;;
21814;SDS011;11069;48.988;8.450;2022-07-01T08:09:13;7.95;;;4.25;;
21814;SDS011;11069;48.988;8.450;2022-07-01T08:11:38;5.43;;;3.72;;
21814;SDS011;11069;48.988;8.450;2022-07-01T08:14:04;5.10;;;3.92;;
21814;SDS011;11069;48.988;8.450;2022-07-01T08:16:30;6.88;;;4.65;;
21814;SDS011;11069;48.988;8.450;2022-07-01T08:18:56;6.10;;;3.80;;
21814;SDS011;11069;48.988;8.450;2022-07-01T08:21:21;7.30;;;4.05;;
21814;SDS011;11069;48.988;8.450;2022-07-01T08:23:47;9.75;;;4.25;;
21814;SDS011;11069;48.988;8.450;2022-07-01T08:26:13;8.10;;;4.38;;
21814;SDS011;11069;48.988;8.450;2022-07-01T08:28:40;5.60;;;3.90;;
21814;SDS011;11069;48.988;8.450;2022-07-01T08:31:06;9.38;;;4.55;;
21814;SDS011;11069;48.988;8.450;2022-07-01T08:33:32;5.47;;;3.80;;
21814;SDS011;11069;48.988;8.450;2022-07-01T08:35:57;7.85;;;4.22;;
21814;SDS011;11069;48.988;8.450;2022-07-01T08:38:23;5.35;;;4.13;;
21814;SDS011;11069;48.988;8.450;2022-07-01T08:40:49;8.93;;;4.50;;
21814;SDS011;11069;48.988;8.450;2022-07-01T08:43:15;9.77;;;4.20;;
21814;SDS011;11069;48.988;8.450;2022-07-01T08:45:40;5.10;;;3.42;;
21814;SDS011;11069;48.988;8.450;2022-07-01T08:48:07;7.22;;;3.70;;
21814;SDS011;11069;48.988;8.450;2022-07-01T08:50:36;9.45;;;3.63;;
21814;SDS011;11069;48.988;8.450;2022-07-01T08:53:04;5.53;;;3.92;;
21814;SDS011;11069;48.988;8.450;2022-07-01T08:55:30;4.95;;;3.40;;
21814;SDS011;11069;48.988;8.450;2022-07-01T08:57:56;7.18;;;3.88;;
21814;SDS011;11069;48.988;8.450;2022-07-01T09:00:28;7.50;;;3.63;;
21814;SDS011;11069;48.988;8.450;2022-07-01T09:03:01;3.63;;;2.97;;
21814;SDS011;11069;48.988;8.450;2022-07-01T09:05:29;3.47;;;3.17;;
21814;SDS011;11069;48.988;8.450;2022-07-01T09:07:56;5.85;;;3.08;;
21814;SDS011;11069;48.988;8.450;2022-07-01T09:10:25;4.57;;;2.67;;
21814;SDS011;11069;48.988;8.450;2022-07-01T09:12:51;3.33;;;2.92;;
21814;SDS011;11069;48.988;8.450;2022-07-01T09:17:53;4.82;;;2.58;;
21814;SDS011;11069;48.988;8.450;2022-07-01T09:20:25;3.90;;;2.60;;
21814;SDS011;11069;48.988;8.450;2022-07-01T09:23:08;2.80;;;2.25;;
21814;SDS011;11069;48.988;8.450;2022-07-01T09:25:42;5.00;;;2.60;;
21814;SDS011;11069;48.988;8.450;2022-07-01T09:30:40;4.53;;;1.90;;
21814;SDS011;11069;48.988;8.450;2022-07-01T09:35:43;3.58;;;2.15;;
21814;SDS011;11069;48.988;8.450;2022-07-01T09:38:11;4.50;;;2.15;;
21814;SDS011;11069;48.988;8.450;2022-07-01T09:40:54;6.55;;;2.10;;
21814;SDS011;11069;48.988;8.450;2022-07-01T09:43:24;4.57;;;1.95;;
21814;SDS011;11069;48.988;8.450;2022-07-01T09:46:10;2.88;;;1.55;;
21814;SDS011;11069;48.988;8.450;2022-07-01T09:51:06;1.95;;;1.55;;
21814;SDS011;11069;48.988;8.450;2022-07-01T09:53:33;2.58;;;1.73;;
21814;SDS011;11069;48.988;8.450;2022-07-01T09:55:59;2.28;;;1.80;;
21814;SDS011;11069;48.988;8.450;2022-07-01T09:58:26;1.50;;;1.40;;
21814;SDS011;11069;48.988;8.450;2022-07-01T10:00:52;2.97;;;1.48;;
21814;SDS011;11069;48.988;8.450;2022-07-01T10:03:19;3.42;;;1.90;;
21814;SDS011;11069;48.988;8.450;2022-07-01T10:05:54;2.40;;;1.70;;
21814;SDS011;11069;48.988;8.450;2022-07-01T10:14:04;4.15;;;1.40;;
21814;SDS011;11069;48.988;8.450;2022-07-01T10:16:32;1.95;;;1.05;;
21814;SDS011;11069;48.988;8.450;2022-07-01T10:18:59;3.33;;;1.15;;
21814;SDS011;11069;48.988;8.450;2022-07-01T10:21:30;2.50;;;1.20;;
21814;SDS011;11069;48.988;8.450;2022-07-01T10:24:15;3.28;;;1.35;;
21814;SDS011;11069;48.988;8.450;2022-07-01T10:26:41;5.10;;;1.35;;
21814;SDS011;11069;48.988;8.450;2022-07-01T10:32:08;3.67;;;1.33;;
21814;SDS011;11069;48.988;8.450;2022-07-01T10:34:37;3.40;;;1.20;;
21814;SDS011;11069;48.988;8.450;2022-07-01T10:37:13;4.53;;;1.60;;
21814;SDS011;11069;48.988;8.450;2022-07-01T10:40:01;4.13;;;1.30;;
21814;SDS011;11069;48.988;8.450;2022-07-01T10:42:34;1.60;;;1.17;;
21814;SDS011;11069;48.988;8.450;2022-07-01T10:45:20;1.70;;;1.10;;
21814;SDS011;11069;48.988;8.450;2022-07-01T10:47:45;1.80;;;1.05;;
21814;SDS011;11069;48.988;8.450;2022-07-01T10:50:12;2.05;;;1.10;;
21814;SDS011;11069;48.988;8.450;2022-07-01T10:53:00;5.22;;;1.20;;
21814;SDS011;11069;48.988;8.450;2022-07-01T10:55:40;1.65;;;1.20;;
21814;SDS011;11069;48.988;8.450;2022-07-01T10:58:09;2.78;;;1.05;;
21814;SDS011;11069;48.988;8.450;2022-07-01T11:00:34;3.75;;;1.30;;
21814;SDS011;11069;48.988;8.450;2022-07-01T11:03:05;2.97;;;1.40;;
21814;SDS011;11069;48.988;8.450;2022-07-01T11:05:33;4.40;;;1.10;;
21814;SDS011;11069;48.988;8.450;2022-07-01T11:08:01;2.17;;;0.98;;
21814;SDS011;11069;48.988;8.450;2022-07-01T11:10:26;2.55;;;1.08;;
21814;SDS011;11069;48.988;8.450;2022-07-01T11:12:52;2.13;;;1.10;;
21814;SDS011;11069;48.988;8.450;2022-07-01T11:15:18;1.25;;;1.00;;
21814;SDS011;11069;48.988;8.450;2022-07-01T11:17:44;4.63;;;1.20;;
21814;SDS011;11069;48.988;8.450;2022-07-01T11:20:12;1.98;;;1.08;;
21814;SDS011;11069;48.988;8.450;2022-07-01T11:22:38;2.65;;;1.00;;
21814;SDS011;11069;48.988;8.450;2022-07-01T11:25:05;1.98;;;0.90;;
21814;SDS011;11069;48.988;8.450;2022-07-01T11:27:33;2.25;;;1.00;;
21814;SDS011;11069;48.988;8.450;2022-07-01T11:29:59;1.50;;;0.80;;
21814;SDS011;11069;48.988;8.450;2022-07-01T11:32:27;2.78;;;1.17;;
21814;SDS011;11069;48.988;8.450;2022-07-01T11:34:58;1.90;;;1.00;;
21814;SDS011;11069;48.988;8.450;2022-07-01T11:37:26;2.25;;;0.88;;
21814;SDS011;11069;48.988;8.450;2022-07-01T11:40:12;1.85;;;0.95;;
21814;SDS011;11069;48.988;8.450;2022-07-01T11:42:39;1.77;;;0.90;;
21814;SDS011;11069;48.988;8.450;2022-07-01T11:45:07;3.08;;;0.90;;
21814;SDS011;11069;48.988;8.450;2022-07-01T11:47:33;0.88;;;0.80;;
21814;SDS011;11069;48.988;8.450;2022-07-01T11:49:59;1.60;;;0.90;;
21814;SDS011;11069;48.988;8.450;2022-07-01T11:52:26;1.90;;;0.95;;
21814;SDS011;11069;48.988;8.450;2022-07-01T11:54:56;1.95;;;0.95;;
21814;SDS011;11069;48.988;8.450;2022-07-01T11:57:25;1.17;;;0.80;;
21814;SDS011;11069;48.988;8.450;2022-07-01T11:59:54;1.60;;;0.90;;
21814;SDS011;11069;48.988;8.450;2022-07-01T12:02:22;1.85;;;1.02;;
21814;SDS011;11069;48.988;8.450;2022-07-01T12:04:49;1.52;;;0.85;;
21814;SDS011;11069;48.988;8.450;2022-07-01T12:07:16;2.42;;;1.10;;
21814;SDS011;11069;48.988;8.450;2022-07-01T12:09:46;3.42;;;0.90;;
21814;SDS011;11069;48.988;8.450;2022-07-01T12:12:16;3.03;;;1.00;;
21814;SDS011;11069;48.988;8.450;2022-07-01T12:17:19;3.47;;;1.45;;
21814;SDS011;11069;48.988;8.450;2022-07-01T12:19:46;2.30;;;1.00;;
21814;SDS011;11069;48.988;8.450;2022-07-01T12:22:16;2.05;;;1.00;;
21814;SDS011;11069;48.988;8.450;2022-07-01T12:24:48;1.42;;;1.08;;
21814;SDS011;11069;48.988;8.450;2022-07-01T12:27:14;1.77;;;1.02;;
21814;SDS011;11069;48.988;8.450;2022-07-01T12:32:19;2.80;;;1.15;;
21814;SDS011;11069;48.988;8.450;2022-07-01T12:37:17;2.92;;;1.20;;
21814;SDS011;11069;48.988;8.450;2022-07-01T12:39:55;4.03;;;1.58;;
21814;SDS011;11069;48.988;8.450;2022-07-01T12:42:36;2.17;;;1.10;;
21814;SDS011;11069;48.988;8.450;2022-07-01T12:45:12;2.15;;;1.33;;
21814;SDS011;11069;48.988;8.450;2022-07-01T12:47:39;1.65;;;1.00;;
21814;SDS011;11069;48.988;8.450;2022-07-01T12:50:12;4.05;;;1.25;;
21814;SDS011;11069;48.988;8.450;2022-07-01T12:53:02;2.78;;;1.05;;
21814;SDS011;11069;48.988;8.450;2022-07-01T12:58:02;3.88;;;1.33;;
21814;SDS011;11069;48.988;8.450;2022-07-01T13:00:29;2.58;;;1.00;;
21814;SDS011;11069;48.988;8.450;2022-07-01T13:02:57;1.55;;;0.93;;
21814;SDS011;11069;48.988;8.450;2022-07-01T13:05:24;3.47;;;1.25;;
21814;SDS011;11069;48.988;8.450;2022-07-01T13:07:49;2.15;;;0.88;;
21814;SDS011;11069;48.988;8.450;2022-07-01T13:10:16;3.63;;;1.02;;
21814;SDS011;11069;48.988;8.450;2022-07-01T13:12:42;1.83;;;1.02;;
21814;SDS011;11069;48.988;8.450;2022-07-01T13:15:09;5.53;;;1.27;;
21814;SDS011;11069;48.988;8.450;2022-07-01T13:17:36;1.95;;;1.10;;
21814;SDS011;11069;48.988;8.450;2022-07-01T13:20:02;1.63;;;0.88;;
21814;SDS011;11069;48.988;8.450;2022-07-01T13:22:28;3.33;;;1.23;;
21814;SDS011;11069;48.988;8.450;2022-07-01T13:24:53;4.72;;;1.10;;
21814;SDS011;11069;48.988;8.450;2022-07-01T13:27:19;2.72;;;1.05;;
21814;SDS011;11069;48.988;8.450;2022-07-01T13:29:46;2.65;;;0.90;;
21814;SDS011;11069;48.988;8.450;2022-07-01T13:32:11;3.10;;;0.75;;
21814;SDS011;11069;48.988;8.450;2022-07-01T13:34:37;3.75;;;1.20;;
21814;SDS011;11069;48.988;8.450;2022-07-01T13:37:02;3.00;;;1.08;;
21814;SDS011;11069;48.988;8.450;2022-07-01T13:39:28;2.80;;;1.00;;
21814;SDS011;11069;48.988;8.450;2022-07-01T13:41:54;4.70;;;1.10;;
21814;SDS011;11069;48.988;8.450;2022-07-01T13:44:21;3.20;;;0.90;;
21814;SDS011;11069;48.988;8.450;2022-07-01T13:46:47;1.67;;;1.00;;
21814;SDS011;11069;48.988;8.450;2022-07-01T13:49:13;2.58;;;1.13;;
21814;SDS011;11069;48.988;8.450;2022-07-01T13:51:39;0.80;;;0.65;;
21814;SDS011;11069;48.988;8.450;2022-07-01T13:54:04;2.35;;;1.00;;
21814;SDS011;11069;48.988;8.450;2022-07-01T13:56:30;2.50;;;0.90;;
21814;SDS011;11069;48.988;8.450;2022-07-01T13:58:55;1.75;;;0.90;;
21814;SDS011;11069;48.988;8.450;2022-07-01T14:01:22;2.92;;;1.02;;
21814;SDS011;11069;48.988;8.450;2022-07-01T14:03:48;2.00;;;0.98;;
21814;SDS011;11069;48.988;8.450;2022-07-01T14:06:14;3.40;;;0.80;;
21814;SDS011;11069;48.988;8.450;2022-07-01T14:08:40;1.83;;;0.80;;
21814;SDS011;11069;48.988;8.450;2022-07-01T14:11:06;2.03;;;0.90;;
21814;SDS011;11069;48.988;8.450;2022-07-01T14:13:31;2.17;;;1.15;;
21814;SDS011;11069;48.988;8.450;2022-07-01T14:15:59;1.67;;;0.98;;
21814;SDS011;11069;48.988;8.450;2022-07-01T14:18:25;3.50;;;0.93;;
21814;SDS011;11069;48.988;8.450;2022-07-01T14:20:51;1.55;;;1.00;;
21814;SDS011;11069;48.988;8.450;2022-07-01T14:23:17;1.27;;;0.95;;
21814;SDS011;11069;48.988;8.450;2022-07-01T14:25:43;3.30;;;0.70;;
21814;SDS011;11069;48.988;8.450;2022-07-01T14:28:10;1.80;;;0.73;;
21814;SDS011;11069;48.988;8.450;2022-07-01T14:30:38;2.47;;;0.70;;
21814;SDS011;11069;48.988;8.450;2022-07-01T14:33:04;1.90;;;0.80;;
21814;SDS011;11069;48.988;8.450;2022-07-01T14:35:30;1.67;;;0.70;;
21814;SDS011;11069;48.988;8.450;2022-07-01T14:37:56;1.05;;;0.90;;
21814;SDS011;11069;48.988;8.450;2022-07-01T14:40:23;5.28;;;0.90;;
21814;SDS011;11069;48.988;8.450;2022-07-01T14:42:49;2.15;;;0.70;;
21814;SDS011;11069;48.988;8.450;2022-07-01T14:45:15;5.57;;;1.10;;
21814;SDS011;11069;48.988;8.450;2022-07-01T14:47:41;1.58;;;0.88;;
21814;SDS011;11069;48.988;8.450;2022-07-01T14:50:07;2.15;;;0.80;;
21814;SDS011;11069;48.988;8.450;2022-07-01T14:52:33;2.10;;;0.80;;
21814;SDS011;11069;48.988;8.450;2022-07-01T14:54:59;3.33;;;1.00;;
21814;SDS011;11069;48.988;8.450;2022-07-01T14:57:25;1.90;;;0.80;;
21814;SDS011;11069;48.988;8.450;2022-07-01T14:59:51;2.55;;;0.90;;
21814;SDS011;11069;48.988;8.450;2022-07-01T15:02:17;1.63;;;1.00;;
21814;SDS011;11069;48.988;8.450;2022-07-01T15:04:45;1.55;;;0.70;;
21814;SDS011;11069;48.988;8.450;2022-07-01T15:07:11;1.15;;;0.70;;
21814;SDS011;11069;48.988;8.450;2022-07-01T15:09:37;4.40;;;1.00;;
21814;SDS011;11069;48.988;8.450;2022-07-01T15:12:03;4.63;;;1.00;;
21814;SDS011;11069;48.988;8.450;2022-07-01T15:14:29;2.65;;;0.90;;
21814;SDS011;11069;48.988;8.450;2022-07-01T15:16:55;1.08;;;0.70;;
21814;SDS011;11069;48.988;8.450;2022-07-01T15:19:23;1.40;;;0.70;;